KBEC/BEC METAR and TAF weather

Enter ICAO airport designator
Station Type Date Time Source
KBEC METAR 2019/05/26 01:35 UTC NOAA

KBEC 260135Z AUTO 17009KT 10SM RA SCT085 OVC120 23/21 A2998 RMK AO2 LTG DSNT ALQS T02280212


Station Type Date Time Source
KBEC Decoded METAR 2019/05/26 01:35 UTC NOAA

Station name not available
May 25, 2019 - 09:35 PM EDT / 2019.05.26 0135 UTC
Wind: from the S (170 degrees) at 10 MPH (9 KT):0
Visibility: 10 mile(s):0
Sky conditions: overcast
Weather: rain; Lightning observed
Temperature: 73.0 F (22.8 C)
Dew Point: 70.2 F (21.2 C)
Relative Humidity: 90%
Pressure (altimeter): 29.98 in. Hg (1015 hPa)
ob: KBEC 260135Z AUTO 17009KT 10SM RA SCT085 OVC120 23/21 A2998 RMK AO2 LTG DSNT ALQS T02280212
cycle: 1

Station Type Date Time Source
KBEC TAF UTC NOAA

Error!

Example: see airport list